Time;durP1;ratioP1;P1;durP2;ratioP2;P2;SDS_P1;SDS_P2;PMS_P1;PMS_P2;Temp;Humidity;BMP_temperature;BMP_pressure;BME280_temperature;BME280_humidity;BME280_pressure;Samples;Min_cycle;Max_cycle;Signal;HPM_P1;HPM_P2
2023/06/02 00:01:01;;;;;;;;;3.25;3.25;;;;;;;;4955610;28;45317;-73
2023/06/02 00:03:31;;;;;;;;;7.50;7.50;;;;;;;;4954804;28;45311;-72
2023/06/02 00:05:59;;;;;;;;;6.50;6.50;;;;;;;;4955750;28;45454;-72
2023/06/02 00:08:24;;;;;;;;;7.25;4.25;;;;;;;;4956067;28;45435;-72
2023/06/02 00:10:50;;;;;;;;;5.00;5.00;;;;;;;;4955880;28;45409;-72
2023/06/02 00:13:15;;;;;;;;;6.50;5.50;;;;;;;;4955983;28;45429;-71
2023/06/02 00:15:40;;;;;;;;;5.75;4.75;;;;;;;;4956074;28;45683;-71
2023/06/02 00:18:07;;;;;;;;;6.00;5.00;;;;;;;;4955374;28;46316;-71
2023/06/02 00:20:32;;;;;;;;;5.25;4.50;;;;;;;;4950509;28;45452;-72
2023/06/02 00:22:58;;;;;;;;;9.00;7.00;;;;;;;;4936200;28;45706;-71
2023/06/02 00:25:23;;;;;;;;;6.50;5.50;;;;;;;;4936490;28;45349;-72
2023/06/02 00:27:48;;;;;;;;;6.75;6.00;;;;;;;;4936157;28;45502;-71
2023/06/02 00:30:13;;;;;;;;;11.50;6.00;;;;;;;;4936719;28;45446;-72
2023/06/02 00:32:39;;;;;;;;;4.00;4.00;;;;;;;;4935915;28;45541;-71
2023/06/02 00:35:04;;;;;;;;;8.75;6.75;;;;;;;;4936963;28;45491;-71
2023/06/02 00:37:30;;;;;;;;;6.75;6.75;;;;;;;;4935075;28;46856;-71
2023/06/02 00:39:55;;;;;;;;;8.00;6.00;;;;;;;;4936603;28;45433;-71
2023/06/02 00:42:21;;;;;;;;;14.75;11.00;;;;;;;;4944609;28;45463;-72
2023/06/02 00:44:46;;;;;;;;;8.75;8.00;;;;;;;;4955594;28;45334;-71
2023/06/02 00:47:11;;;;;;;;;8.50;7.25;;;;;;;;4954782;28;46975;-70
2023/06/02 00:49:37;;;;;;;;;8.75;8.75;;;;;;;;4955376;28;45416;-71
2023/06/02 00:52:03;;;;;;;;;9.75;9.75;;;;;;;;4955381;28;45437;-70
2023/06/02 00:54:28;;;;;;;;;10.75;10.00;;;;;;;;4967664;28;45516;-70
2023/06/02 00:56:54;;;;;;;;;10.75;8.50;;;;;;;;4974628;28;45440;-70
2023/06/02 00:59:22;;;;;;;;;9.75;9.75;;;;;;;;4975275;28;45390;-70
2023/06/02 01:01:48;;;;;;;;;11.75;9.50;;;;;;;;4973985;28;45268;-70
2023/06/02 01:04:13;;;;;;;;;9.75;9.00;;;;;;;;4974701;28;45528;-71
2023/06/02 01:06:40;;;;;;;;;9.50;9.25;;;;;;;;4974418;28;45369;-71
2023/06/02 01:09:07;;;;;;;;;12.75;10.00;;;;;;;;4965036;28;45500;-70
2023/06/02 01:11:33;;;;;;;;;8.75;8.00;;;;;;;;4954508;28;45524;-71
2023/06/02 01:13:59;;;;;;;;;11.00;9.75;;;;;;;;4956487;28;45236;-70
2023/06/02 01:16:26;;;;;;;;;10.00;10.00;;;;;;;;4958083;28;45429;-71
2023/06/02 01:18:52;;;;;;;;;12.25;11.75;;;;;;;;4958585;28;45444;-71
2023/06/02 01:21:23;;;;;;;;;10.75;10.75;;;;;;;;4947119;28;45485;-73
2023/06/02 01:23:53;;;;;;;;;15.75;12.00;;;;;;;;4939182;28;45524;-72
2023/06/02 01:26:18;;;;;;;;;9.00;8.75;;;;;;;;4946681;28;45635;-71
2023/06/02 01:28:43;;;;;;;;;12.25;11.25;;;;;;;;4958005;28;45319;-71
2023/06/02 01:31:15;;;;;;;;;15.75;13.25;;;;;;;;4958125;28;45314;-70
2023/06/02 01:33:59;;;;;;;;;18.25;13.00;;;;;;;;4957435;28;45452;-71
2023/06/02 01:36:27;;;;;;;;;14.25;11.00;;;;;;;;4958037;28;45591;-71
2023/06/02 01:38:53;;;;;;;;;13.50;10.50;;;;;;;;4958088;28;45373;-71
2023/06/02 01:41:19;;;;;;;;;13.75;12.50;;;;;;;;4957957;28;45484;-72
2023/06/02 01:43:45;;;;;;;;;11.25;10.50;;;;;;;;4958353;28;45441;-71
2023/06/02 01:46:11;;;;;;;;;12.00;11.00;;;;;;;;4957837;28;45603;-71
2023/06/02 01:48:36;;;;;;;;;14.75;12.00;;;;;;;;4957618;28;45788;-71
2023/06/02 01:51:02;;;;;;;;;11.00;10.75;;;;;;;;4958069;28;45365;-69
2023/06/02 01:53:27;;;;;;;;;14.50;13.50;;;;;;;;4957090;28;45623;-71
2023/06/02 01:55:52;;;;;;;;;14.75;13.75;;;;;;;;4957881;28;46468;-71
2023/06/02 01:58:18;;;;;;;;;11.50;11.50;;;;;;;;4957995;28;45410;-71
2023/06/02 02:00:43;;;;;;;;;15.50;14.75;;;;;;;;4957426;28;45322;-71
2023/06/02 02:03:08;;;;;;;;;14.00;13.50;;;;;;;;4957651;28;45356;-71
2023/06/02 02:05:33;;;;;;;;;17.50;13.25;;;;;;;;4956518;28;45607;-72
2023/06/02 02:07:59;;;;;;;;;11.00;10.50;;;;;;;;4957265;28;45341;-72
2023/06/02 02:10:24;;;;;;;;;13.75;11.50;;;;;;;;4957183;28;45476;-72
2023/06/02 02:12:50;;;;;;;;;11.00;10.00;;;;;;;;4956205;28;45382;-71
2023/06/02 02:15:15;;;;;;;;;13.25;11.00;;;;;;;;4957383;28;45410;-71
2023/06/02 02:17:47;;;;;;;;;14.25;11.25;;;;;;;;4957878;28;45453;-71
2023/06/02 02:20:19;;;;;;;;;14.50;13.00;;;;;;;;4953742;28;45365;-71
2023/06/02 02:22:45;;;;;;;;;18.00;13.00;;;;;;;;4938001;28;45408;-71
2023/06/02 02:25:10;;;;;;;;;14.25;13.00;;;;;;;;4937309;28;45480;-72
2023/06/02 02:27:36;;;;;;;;;13.00;10.25;;;;;;;;4937535;28;45339;-72
2023/06/02 02:30:03;;;;;;;;;16.25;12.00;;;;;;;;4937959;28;45467;-71
2023/06/02 02:32:29;;;;;;;;;11.00;11.00;;;;;;;;4938196;28;45450;-71
2023/06/02 02:34:54;;;;;;;;;13.75;13.50;;;;;;;;4950665;28;45469;-70
2023/06/02 02:37:19;;;;;;;;;10.50;10.50;;;;;;;;4956860;28;45382;-71
2023/06/02 02:39:45;;;;;;;;;12.00;12.00;;;;;;;;4956089;28;45322;-71
2023/06/02 02:42:10;;;;;;;;;11.75;11.75;;;;;;;;4957353;28;45290;-71
2023/06/02 02:44:35;;;;;;;;;11.25;10.25;;;;;;;;4956645;28;45454;-71
2023/06/02 02:47:00;;;;;;;;;10.00;9.75;;;;;;;;4956950;28;45935;-71
2023/06/02 02:49:25;;;;;;;;;16.50;14.00;;;;;;;;4956830;28;45330;-72
2023/06/02 02:51:51;;;;;;;;;9.50;8.75;;;;;;;;4956607;28;45314;-71
2023/06/02 02:54:16;;;;;;;;;12.25;12.25;;;;;;;;4957040;28;46198;-71
2023/06/02 02:56:41;;;;;;;;;10.50;10.50;;;;;;;;4957195;28;45323;-72
2023/06/02 02:59:06;;;;;;;;;13.75;11.50;;;;;;;;4956630;28;45333;-72
2023/06/02 03:01:32;;;;;;;;;17.00;15.75;;;;;;;;4956766;28;45461;-71
2023/06/02 03:03:58;;;;;;;;;17.00;11.25;;;;;;;;4956536;28;46306;-72
2023/06/02 03:06:28;;;;;;;;;16.50;15.00;;;;;;;;4957001;28;45603;-72
2023/06/02 03:08:53;;;;;;;;;16.25;11.00;;;;;;;;4956861;28;45347;-71
2023/06/02 03:11:18;;;;;;;;;14.00;12.25;;;;;;;;4956525;28;45462;-72
2023/06/02 03:13:44;;;;;;;;;14.00;12.25;;;;;;;;4956075;28;45759;-72
2023/06/02 03:16:09;;;;;;;;;17.50;14.00;;;;;;;;4956014;28;45387;-71
2023/06/02 03:18:34;;;;;;;;;16.25;13.50;;;;;;;;4956973;28;45409;-72
2023/06/02 03:21:02;;;;;;;;;9.25;9.25;;;;;;;;4955354;28;45358;-71
2023/06/02 03:23:28;;;;;;;;;14.25;14.25;;;;;;;;4956031;28;46268;-72
2023/06/02 03:25:54;;;;;;;;;12.50;11.25;;;;;;;;4956114;28;45519;-71
2023/06/02 03:28:20;;;;;;;;;16.50;14.25;;;;;;;;4956208;28;45392;-72
2023/06/02 03:30:45;;;;;;;;;17.00;14.00;;;;;;;;4956400;28;45515;-71
2023/06/02 03:33:10;;;;;;;;;15.25;14.75;;;;;;;;4956391;28;46462;-71
2023/06/02 03:35:35;;;;;;;;;13.00;13.00;;;;;;;;4956279;28;45471;-71
2023/06/02 03:38:00;;;;;;;;;13.75;12.25;;;;;;;;4956064;28;45404;-71
2023/06/02 03:40:26;;;;;;;;;15.50;13.50;;;;;;;;4956366;28;45428;-71
2023/06/02 03:42:51;;;;;;;;;17.75;16.25;;;;;;;;4955938;28;45444;-72
2023/06/02 03:45:16;;;;;;;;;14.25;13.75;;;;;;;;4954825;28;45525;-72
2023/06/02 03:47:41;;;;;;;;;13.50;12.00;;;;;;;;4955966;28;45425;-72
2023/06/02 03:50:07;;;;;;;;;17.50;14.25;;;;;;;;4955902;28;45377;-72
2023/06/02 03:52:32;;;;;;;;;18.50;14.75;;;;;;;;4955897;28;45404;-72
2023/06/02 03:54:57;;;;;;;;;13.50;13.50;;;;;;;;4956639;28;45375;-72
2023/06/02 03:57:23;;;;;;;;;18.50;16.25;;;;;;;;4956069;28;45432;-72
2023/06/02 03:59:48;;;;;;;;;17.00;13.25;;;;;;;;4956122;28;45400;-72
2023/06/02 04:02:13;;;;;;;;;16.50;15.25;;;;;;;;4956040;28;46344;-73
2023/06/02 04:04:38;;;;;;;;;19.25;15.25;;;;;;;;4955904;28;45346;-73
2023/06/02 04:07:04;;;;;;;;;13.50;12.00;;;;;;;;4955907;28;45444;-73
2023/06/02 04:09:29;;;;;;;;;13.75;12.00;;;;;;;;4956218;28;45430;-73
2023/06/02 04:11:54;;;;;;;;;19.00;16.75;;;;;;;;4955679;28;45694;-72
2023/06/02 04:14:20;;;;;;;;;20.00;16.00;;;;;;;;4956175;28;45445;-72
2023/06/02 04:16:45;;;;;;;;;18.25;15.25;;;;;;;;4956447;28;45943;-73
2023/06/02 04:19:10;;;;;;;;;23.00;18.75;;;;;;;;4955544;28;45340;-73
2023/06/02 04:21:35;;;;;;;;;20.75;18.75;;;;;;;;4940284;28;46513;-72
2023/06/02 04:24:01;;;;;;;;;16.75;15.25;;;;;;;;4936491;28;45393;-72
2023/06/02 04:26:26;;;;;;;;;17.75;15.00;;;;;;;;4935748;28;45335;-72
2023/06/02 04:28:51;;;;;;;;;18.00;14.75;;;;;;;;4936857;28;45342;-72
2023/06/02 04:31:26;;;;;;;;;14.25;13.25;;;;;;;;4951016;28;47578;-72
2023/06/02 04:33:51;;;;;;;;;19.75;15.50;;;;;;;;4955422;28;45449;-72
2023/06/02 04:36:17;;;;;;;;;15.25;11.75;;;;;;;;4956173;28;45488;-72
2023/06/02 04:38:43;;;;;;;;;18.50;16.25;;;;;;;;4955215;28;45476;-72
2023/06/02 04:41:08;;;;;;;;;21.25;20.75;;;;;;;;4953817;28;48478;-72
2023/06/02 04:43:34;;;;;;;;;15.50;14.50;;;;;;;;4954345;28;45435;-72
2023/06/02 04:46:01;;;;;;;;;17.75;17.75;;;;;;;;4955848;28;45361;-71
2023/06/02 04:48:26;;;;;;;;;20.00;17.50;;;;;;;;4957828;28;45468;-71
2023/06/02 04:50:51;;;;;;;;;16.50;16.50;;;;;;;;4958738;28;46228;-70
2023/06/02 04:53:17;;;;;;;;;15.75;13.75;;;;;;;;4958374;28;45519;-72
2023/06/02 04:55:43;;;;;;;;;20.50;18.75;;;;;;;;4959051;28;45462;-70
2023/06/02 04:58:08;;;;;;;;;15.75;15.00;;;;;;;;4958775;28;45567;-71
2023/06/02 05:00:34;;;;;;;;;14.00;12.50;;;;;;;;4958476;28;45552;-72
2023/06/02 05:02:59;;;;;;;;;21.00;18.75;;;;;;;;4958895;28;45398;-71
2023/06/02 05:05:25;;;;;;;;;27.75;20.75;;;;;;;;4959151;28;45714;-73
2023/06/02 05:07:51;;;;;;;;;26.75;24.00;;;;;;;;4958524;28;45362;-70
2023/06/02 05:10:16;;;;;;;;;23.00;18.00;;;;;;;;4958699;28;46266;-70
2023/06/02 05:12:41;;;;;;;;;24.75;23.75;;;;;;;;4958365;28;45514;-71
2023/06/02 05:15:07;;;;;;;;;23.25;21.75;;;;;;;;4958795;28;45340;-70
2023/06/02 05:17:33;;;;;;;;;21.75;19.50;;;;;;;;4958845;28;45301;-69
2023/06/02 05:19:58;;;;;;;;;19.00;18.75;;;;;;;;4957232;28;45569;-71
2023/06/02 05:22:23;;;;;;;;;26.50;24.75;;;;;;;;4947152;28;45427;-71
2023/06/02 05:24:48;;;;;;;;;28.00;24.75;;;;;;;;4957792;28;45416;-73
2023/06/02 05:27:14;;;;;;;;;25.25;23.25;;;;;;;;4958083;28;45453;-73
2023/06/02 05:29:39;;;;;;;;;22.00;20.25;;;;;;;;4958145;28;46297;-74
2023/06/02 05:32:06;;;;;;;;;26.25;24.25;;;;;;;;4958373;28;45438;-74
2023/06/02 05:34:32;;;;;;;;;25.25;23.50;;;;;;;;4957888;28;45299;-74
2023/06/02 05:36:57;;;;;;;;;26.75;25.75;;;;;;;;4958099;28;45331;-73
2023/06/02 05:39:23;;;;;;;;;25.00;23.25;;;;;;;;4957802;28;45489;-74
2023/06/02 05:41:48;;;;;;;;;29.50;24.00;;;;;;;;4940051;28;45437;-74
2023/06/02 05:44:13;;;;;;;;;27.25;24.25;;;;;;;;4956917;28;45326;-73
2023/06/02 05:46:39;;;;;;;;;21.25;15.25;;;;;;;;4958141;28;45567;-72
2023/06/02 05:49:04;;;;;;;;;23.25;22.00;;;;;;;;4957616;28;46061;-72
2023/06/02 05:51:30;;;;;;;;;18.75;17.75;;;;;;;;4955473;28;45397;-72
2023/06/02 05:53:56;;;;;;;;;23.50;23.50;;;;;;;;4957574;28;45437;-71
2023/06/02 05:56:21;;;;;;;;;27.50;23.25;;;;;;;;4957622;28;45382;-72
2023/06/02 05:58:47;;;;;;;;;24.50;20.25;;;;;;;;4956949;28;45975;-72
2023/06/02 06:01:12;;;;;;;;;17.50;17.00;;;;;;;;4957285;28;45446;-71
2023/06/02 06:03:37;;;;;;;;;24.75;23.25;;;;;;;;4957748;28;45335;-71
2023/06/02 06:06:03;;;;;;;;;27.25;21.50;;;;;;;;4957513;28;45302;-71
2023/06/02 06:08:29;;;;;;;;;26.00;22.00;;;;;;;;4956163;28;45986;-71
2023/06/02 06:10:54;;;;;;;;;24.25;24.00;;;;;;;;4948879;28;45335;-70
2023/06/02 06:13:19;;;;;;;;;28.25;26.00;;;;;;;;4938286;28;45439;-71
2023/06/02 06:15:47;;;;;;;;;26.50;20.50;;;;;;;;4957744;28;45444;-71
2023/06/02 06:18:13;;;;;;;;;20.50;17.75;;;;;;;;4957138;28;45470;-70
2023/06/02 06:20:38;;;;;;;;;15.50;14.50;;;;;;;;4957150;28;45429;-71
2023/06/02 06:23:03;;;;;;;;;25.75;20.50;;;;;;;;4955103;28;45546;-70
2023/06/02 06:25:28;;;;;;;;;30.50;19.50;;;;;;;;4957155;28;45406;-71
2023/06/02 06:27:54;;;;;;;;;25.75;25.50;;;;;;;;4955863;28;46371;-71
2023/06/02 06:30:21;;;;;;;;;19.75;19.75;;;;;;;;4957824;28;45370;-71
2023/06/02 06:32:46;;;;;;;;;23.75;22.00;;;;;;;;4957528;28;45412;-70
2023/06/02 06:35:12;;;;;;;;;19.75;19.75;;;;;;;;4956666;28;45318;-71
2023/06/02 06:37:37;;;;;;;;;24.50;22.00;;;;;;;;4956978;28;45380;-71
2023/06/02 06:40:02;;;;;;;;;25.00;22.75;;;;;;;;4956912;28;45480;-70
2023/06/02 06:42:28;;;;;;;;;25.25;23.75;;;;;;;;4957556;28;45262;-71
2023/06/02 06:44:53;;;;;;;;;29.25;26.50;;;;;;;;4957565;28;45350;-70
2023/06/02 06:47:18;;;;;;;;;15.75;13.50;;;;;;;;4955721;28;46990;-71
2023/06/02 06:49:43;;;;;;;;;29.50;19.50;;;;;;;;4955180;28;45413;-70
2023/06/02 06:52:08;;;;;;;;;32.50;25.75;;;;;;;;4957135;28;45784;-71
2023/06/02 06:54:34;;;;;;;;;22.00;21.00;;;;;;;;4957044;28;45465;-71
2023/06/02 06:56:59;;;;;;;;;24.25;22.50;;;;;;;;4955731;28;48545;-71
2023/06/02 06:59:24;;;;;;;;;26.00;22.50;;;;;;;;4956915;28;45393;-71
2023/06/02 07:01:49;;;;;;;;;22.75;17.50;;;;;;;;4957495;28;45306;-70
2023/06/02 07:04:15;;;;;;;;;23.50;20.75;;;;;;;;4956674;28;45758;-71
2023/06/02 07:06:40;;;;;;;;;29.75;26.00;;;;;;;;4956713;28;45362;-71
2023/06/02 07:09:05;;;;;;;;;29.75;24.50;;;;;;;;4956586;28;45479;-71
2023/06/02 07:11:31;;;;;;;;;20.75;18.75;;;;;;;;4955703;28;45748;-71
2023/06/02 07:13:56;;;;;;;;;26.75;25.50;;;;;;;;4956284;28;45266;-70
2023/06/02 07:16:21;;;;;;;;;26.25;25.25;;;;;;;;4955720;28;47776;-72
2023/06/02 07:18:47;;;;;;;;;29.00;26.00;;;;;;;;4955897;28;45309;-71
2023/06/02 07:21:12;;;;;;;;;22.50;18.75;;;;;;;;4945484;28;45403;-71
2023/06/02 07:23:37;;;;;;;;;26.50;23.25;;;;;;;;4937634;28;45459;-71
2023/06/02 07:26:03;;;;;;;;;25.75;20.75;;;;;;;;4942853;28;47180;-71
2023/06/02 07:28:28;;;;;;;;;24.75;23.75;;;;;;;;4956293;28;45383;-71
2023/06/02 07:30:53;;;;;;;;;23.50;21.75;;;;;;;;4956656;28;45396;-70
2023/06/02 07:33:19;;;;;;;;;21.75;18.75;;;;;;;;4955158;28;45395;-71
2023/06/02 07:35:44;;;;;;;;;27.25;22.75;;;;;;;;4956054;28;47128;-71
2023/06/02 07:38:10;;;;;;;;;23.25;20.00;;;;;;;;4956237;28;45331;-71
2023/06/02 07:40:35;;;;;;;;;20.00;18.25;;;;;;;;4956382;28;45392;-71
2023/06/02 07:43:00;;;;;;;;;17.50;16.50;;;;;;;;4954921;28;45445;-70
2023/06/02 07:45:26;;;;;;;;;20.75;19.25;;;;;;;;4956374;28;45580;-71
2023/06/02 07:47:51;;;;;;;;;20.75;17.00;;;;;;;;4947542;28;45470;-70
2023/06/02 07:50:16;;;;;;;;;18.00;15.75;;;;;;;;4956226;28;45309;-71
2023/06/02 07:52:41;;;;;;;;;13.75;11.75;;;;;;;;4956193;28;45544;-70
2023/06/02 07:55:07;;;;;;;;;20.25;17.25;;;;;;;;4954464;28;48313;-71
2023/06/02 07:57:32;;;;;;;;;18.25;13.00;;;;;;;;4956614;28;45368;-71
2023/06/02 07:59:57;;;;;;;;;18.00;15.00;;;;;;;;4956104;28;45496;-71
2023/06/02 08:02:23;;;;;;;;;15.00;12.50;;;;;;;;4956457;28;45485;-71
2023/06/02 08:04:48;;;;;;;;;19.00;17.25;;;;;;;;4955765;28;46652;-72
2023/06/02 08:07:13;;;;;;;;;19.75;16.25;;;;;;;;4955757;28;45521;-72
2023/06/02 08:09:38;;;;;;;;;19.00;17.00;;;;;;;;4954500;28;45397;-72
2023/06/02 08:12:04;;;;;;;;;22.75;21.50;;;;;;;;4956184;28;45282;-72
2023/06/02 08:14:29;;;;;;;;;19.75;16.75;;;;;;;;4954691;28;45608;-72
2023/06/02 08:16:55;;;;;;;;;19.00;17.50;;;;;;;;4947185;28;45457;-71
2023/06/02 08:19:22;;;;;;;;;21.25;21.25;;;;;;;;4935355;28;45422;-72
2023/06/02 08:21:47;;;;;;;;;20.75;19.00;;;;;;;;4951070;28;45421;-71
2023/06/02 08:24:12;;;;;;;;;20.00;19.25;;;;;;;;4955692;28;45360;-71
2023/06/02 08:26:39;;;;;;;;;22.00;21.25;;;;;;;;4955649;28;45505;-71
2023/06/02 08:29:08;;;;;;;;;20.25;18.75;;;;;;;;4956101;28;45378;-72
2023/06/02 08:31:34;;;;;;;;;17.25;16.25;;;;;;;;4955102;28;45370;-71
2023/06/02 08:34:00;;;;;;;;;20.75;19.00;;;;;;;;4953837;28;46550;-71
2023/06/02 08:36:26;;;;;;;;;16.75;16.00;;;;;;;;4955380;28;45501;-71
2023/06/02 08:38:52;;;;;;;;;22.50;20.25;;;;;;;;4954065;28;45425;-71
2023/06/02 08:41:17;;;;;;;;;22.75;21.00;;;;;;;;4955372;28;45369;-71
2023/06/02 08:43:43;;;;;;;;;23.25;21.25;;;;;;;;4955494;28;47092;-71
2023/06/02 08:46:15;;;;;;;;;26.25;21.50;;;;;;;;4955338;28;45325;-71
2023/06/02 08:48:47;;;;;;;;;20.25;20.25;;;;;;;;4955448;28;45417;-71
2023/06/02 08:51:19;;;;;;;;;23.25;21.75;;;;;;;;4955109;28;45524;-70
2023/06/02 08:53:44;;;;;;;;;16.75;14.50;;;;;;;;4955444;28;46446;-71
2023/06/02 08:56:10;;;;;;;;;22.25;22.00;;;;;;;;4955672;28;45308;-71
2023/06/02 08:58:35;;;;;;;;;21.00;20.75;;;;;;;;4955238;28;45289;-71
2023/06/02 09:01:02;;;;;;;;;23.25;18.25;;;;;;;;4955115;28;45278;-70
2023/06/02 09:03:27;;;;;;;;;24.00;21.75;;;;;;;;4955429;28;47394;-71
2023/06/02 09:05:53;;;;;;;;;20.25;18.75;;;;;;;;4955019;28;45381;-70
2023/06/02 09:08:19;;;;;;;;;18.00;17.00;;;;;;;;4954123;28;45502;-70
2023/06/02 09:10:45;;;;;;;;;19.50;17.75;;;;;;;;4955443;28;45527;-70
2023/06/02 09:13:28;;;;;;;;;22.25;18.50;;;;;;;;4955310;28;46405;-70
2023/06/02 09:15:57;;;;;;;;;16.25;16.25;;;;;;;;4954400;28;45430;-70
2023/06/02 09:18:22;;;;;;;;;17.00;17.00;;;;;;;;4944388;28;45489;-71
2023/06/02 09:20:48;;;;;;;;;16.25;15.50;;;;;;;;4947679;28;45449;-70
2023/06/02 09:23:13;;;;;;;;;10.00;8.50;;;;;;;;4935440;28;46101;-71
2023/06/02 09:25:40;;;;;;;;;18.00;16.25;;;;;;;;4935541;28;45473;-70
2023/06/02 09:28:07;;;;;;;;;14.75;13.75;;;;;;;;4935659;28;45371;-72
2023/06/02 09:30:32;;;;;;;;;21.50;19.25;;;;;;;;4935626;28;45324;-71
2023/06/02 09:32:58;;;;;;;;;20.00;14.75;;;;;;;;4935356;28;45525;-70
2023/06/02 09:35:36;;;;;;;;;15.25;14.00;;;;;;;;4954736;28;45390;-71
2023/06/02 09:38:02;;;;;;;;;17.50;16.25;;;;;;;;4957954;28;45314;-70
2023/06/02 09:40:27;;;;;;;;;14.00;12.00;;;;;;;;4958177;28;45544;-71
2023/06/02 09:42:53;;;;;;;;;15.25;12.50;;;;;;;;4957814;28;45560;-71
2023/06/02 09:45:18;;;;;;;;;18.75;16.00;;;;;;;;4957420;28;45444;-70
2023/06/02 09:47:43;;;;;;;;;19.00;15.25;;;;;;;;4957829;28;45409;-71
2023/06/02 09:50:09;;;;;;;;;13.25;12.25;;;;;;;;4956382;28;45579;-71
2023/06/02 09:52:34;;;;;;;;;15.50;14.50;;;;;;;;4957674;28;46194;-71
2023/06/02 09:54:59;;;;;;;;;17.00;15.75;;;;;;;;4956878;28;45496;-71
2023/06/02 09:57:25;;;;;;;;;14.25;13.00;;;;;;;;4958003;28;45453;-72
2023/06/02 09:59:50;;;;;;;;;19.00;17.50;;;;;;;;4957483;28;45587;-71
2023/06/02 10:02:16;;;;;;;;;20.25;15.75;;;;;;;;4957586;28;46149;-72
2023/06/02 10:04:41;;;;;;;;;14.75;14.75;;;;;;;;4958118;28;45369;-72
2023/06/02 10:07:14;;;;;;;;;16.00;13.50;;;;;;;;4956507;28;45758;-71
2023/06/02 10:09:58;;;;;;;;;13.25;13.25;;;;;;;;4957472;28;45409;-70
2023/06/02 10:12:42;;;;;;;;;15.00;14.50;;;;;;;;4957612;28;46204;-72
2023/06/02 10:15:13;;;;;;;;;15.00;14.00;;;;;;;;4957438;28;45426;-72
2023/06/02 10:17:41;;;;;;;;;18.00;16.00;;;;;;;;4957597;28;45381;-72
2023/06/02 10:20:13;;;;;;;;;18.00;15.75;;;;;;;;4954275;28;45497;-72
2023/06/02 10:22:56;;;;;;;;;15.25;13.25;;;;;;;;4949726;28;45814;-71
2023/06/02 10:25:21;;;;;;;;;13.25;10.75;;;;;;;;4957384;28;45366;-71
2023/06/02 10:27:48;;;;;;;;;13.75;13.00;;;;;;;;4956954;28;45255;-71
2023/06/02 10:30:18;;;;;;;;;15.50;12.50;;;;;;;;4957789;28;45330;-72
2023/06/02 10:32:45;;;;;;;;;13.50;13.00;;;;;;;;4957202;28;45642;-72
2023/06/02 10:35:11;;;;;;;;;12.75;12.00;;;;;;;;4956855;28;45481;-71
2023/06/02 10:37:37;;;;;;;;;16.25;13.75;;;;;;;;4957559;28;45460;-72
2023/06/02 10:40:03;;;;;;;;;16.50;12.25;;;;;;;;4957241;28;45368;-72
2023/06/02 10:42:31;;;;;;;;;17.25;14.25;;;;;;;;4956793;28;46152;-72
2023/06/02 10:45:15;;;;;;;;;17.25;11.50;;;;;;;;4956921;28;45435;-72
2023/06/02 10:47:40;;;;;;;;;13.75;12.75;;;;;;;;4955894;28;45419;-72
2023/06/02 10:50:07;;;;;;;;;13.75;12.75;;;;;;;;4956797;28;45508;-72
2023/06/02 10:52:34;;;;;;;;;11.00;9.50;;;;;;;;4965516;28;46202;-72
2023/06/02 10:55:08;;;;;;;;;14.75;11.75;;;;;;;;4935958;28;45602;-69
2023/06/02 10:57:48;;;;;;;;;11.00;11.00;;;;;;;;4948256;28;45425;-69
2023/06/02 11:00:36;;;;;;;;;11.50;11.50;;;;;;;;4956029;28;45417;-68
2023/06/02 11:03:02;;;;;;;;;16.25;11.00;;;;;;;;4943593;28;46396;-72
2023/06/02 11:05:28;;;;;;;;;11.00;9.25;;;;;;;;4946097;28;45360;-69
2023/06/02 11:08:11;;;;;;;;;13.25;11.00;;;;;;;;4950683;28;45468;-69
2023/06/02 11:10:56;;;;;;;;;11.25;10.75;;;;;;;;4945265;28;45537;-71
2023/06/02 11:13:25;;;;;;;;;14.75;12.50;;;;;;;;4945749;28;45439;-70
2023/06/02 11:15:53;;;;;;;;;10.00;10.00;;;;;;;;4942695;28;45696;-69
2023/06/02 11:18:33;;;;;;;;;10.50;8.50;;;;;;;;4952802;28;45468;-70
2023/06/02 11:21:00;;;;;;;;;15.00;13.75;;;;;;;;4939585;28;45422;-72
2023/06/02 11:23:25;;;;;;;;;12.50;11.75;;;;;;;;4954757;28;45349;-71
2023/06/02 11:26:11;;;;;;;;;15.00;11.25;;;;;;;;4956110;28;45398;-72
2023/06/02 11:28:36;;;;;;;;;13.25;11.00;;;;;;;;4955231;28;45456;-72
2023/06/02 11:31:04;;;;;;;;;14.50;12.00;;;;;;;;4956006;28;45516;-71
2023/06/02 11:33:34;;;;;;;;;15.25;14.25;;;;;;;;4955581;28;45416;-71
2023/06/02 11:35:59;;;;;;;;;16.00;13.50;;;;;;;;4955199;28;45507;-71
2023/06/02 11:38:32;;;;;;;;;10.75;10.25;;;;;;;;4952516;28;45517;-71
2023/06/02 11:41:21;;;;;;;;;13.50;12.00;;;;;;;;4945599;28;45345;-71
2023/06/02 11:43:47;;;;;;;;;13.50;12.00;;;;;;;;4946981;28;46393;-71
2023/06/02 11:46:14;;;;;;;;;10.75;10.75;;;;;;;;4946596;28;45405;-71
2023/06/02 11:48:40;;;;;;;;;11.25;9.75;;;;;;;;4953282;28;45466;-70
2023/06/02 11:51:06;;;;;;;;;11.25;9.25;;;;;;;;4955871;28;45497;-70
2023/06/02 11:53:31;;;;;;;;;7.75;7.25;;;;;;;;4956121;28;46498;-71
2023/06/02 11:55:56;;;;;;;;;7.75;6.25;;;;;;;;4956014;28;45418;-71
2023/06/02 11:58:23;;;;;;;;;14.75;12.00;;;;;;;;4955808;28;45321;-71
2023/06/02 12:00:49;;;;;;;;;11.25;11.25;;;;;;;;4956478;28;45437;-71
2023/06/02 12:03:14;;;;;;;;;8.50;8.50;;;;;;;;4955593;28;45629;-71
2023/06/02 12:05:44;;;;;;;;;10.25;8.50;;;;;;;;4955899;28;45428;-71
2023/06/02 12:08:20;;;;;;;;;5.50;5.50;;;;;;;;4950839;28;45537;-71
2023/06/02 12:10:46;;;;;;;;;12.75;9.25;;;;;;;;4945938;28;45449;-70
2023/06/02 12:13:22;;;;;;;;;5.50;5.50;;;;;;;;4944757;28;45521;-70
2023/06/02 12:15:47;;;;;;;;;10.00;7.50;;;;;;;;4945661;28;45476;-70
2023/06/02 12:18:12;;;;;;;;;10.75;9.00;;;;;;;;4945707;28;45401;-71
2023/06/02 12:20:39;;;;;;;;;6.75;6.75;;;;;;;;4945782;28;45439;-71
2023/06/02 12:23:04;;;;;;;;;11.75;10.25;;;;;;;;4946350;28;45519;-71
2023/06/02 12:25:29;;;;;;;;;12.75;10.50;;;;;;;;4945184;28;45462;-70
2023/06/02 12:28:03;;;;;;;;;9.00;7.50;;;;;;;;4946730;28;45464;-70
2023/06/02 12:30:28;;;;;;;;;8.50;8.00;;;;;;;;4945800;28;45424;-70
2023/06/02 12:32:53;;;;;;;;;10.00;8.00;;;;;;;;4945546;28;45349;-71
2023/06/02 12:35:19;;;;;;;;;8.00;5.75;;;;;;;;4946522;28;45410;-70
2023/06/02 12:37:44;;;;;;;;;11.50;8.75;;;;;;;;4944853;28;45404;-71
2023/06/02 12:40:10;;;;;;;;;12.50;10.50;;;;;;;;4945200;28;45418;-71
2023/06/02 12:42:36;;;;;;;;;11.75;9.50;;;;;;;;4945083;28;46208;-71
2023/06/02 12:45:01;;;;;;;;;10.25;9.00;;;;;;;;4944709;28;45437;-69
2023/06/02 12:47:28;;;;;;;;;7.00;6.75;;;;;;;;4946433;28;45324;-70
2023/06/02 12:49:53;;;;;;;;;12.00;10.00;;;;;;;;4947433;28;45520;-69
2023/06/02 12:52:18;;;;;;;;;8.00;7.00;;;;;;;;4946241;28;46213;-70
2023/06/02 12:54:43;;;;;;;;;14.75;14.50;;;;;;;;4944725;28;45395;-69
2023/06/02 12:57:08;;;;;;;;;9.25;8.25;;;;;;;;4947266;28;45270;-71
2023/06/02 12:59:34;;;;;;;;;9.75;9.75;;;;;;;;4945107;28;45310;-69
2023/06/02 13:01:59;;;;;;;;;10.50;10.50;;;;;;;;4944976;28;45562;-69
2023/06/02 13:04:24;;;;;;;;;14.00;11.75;;;;;;;;4945124;28;45384;-69
2023/06/02 13:06:49;;;;;;;;;11.00;10.25;;;;;;;;4944941;28;45596;-71
2023/06/02 13:09:15;;;;;;;;;9.25;9.00;;;;;;;;4945359;28;45633;-70
2023/06/02 13:11:40;;;;;;;;;6.25;6.25;;;;;;;;4953361;28;45887;-71
2023/06/02 13:14:06;;;;;;;;;8.75;8.75;;;;;;;;4957181;28;45446;-70
2023/06/02 13:16:31;;;;;;;;;13.00;9.00;;;;;;;;4959382;28;45370;-70
2023/06/02 13:18:57;;;;;;;;;8.25;8.25;;;;;;;;4954051;28;45485;-71
2023/06/02 13:21:22;;;;;;;;;9.50;9.00;;;;;;;;4945915;28;45455;-72
2023/06/02 13:23:51;;;;;;;;;10.00;9.50;;;;;;;;4937534;28;46283;-70
2023/06/02 13:26:16;;;;;;;;;12.25;10.25;;;;;;;;4939233;28;45433;-72
2023/06/02 13:28:41;;;;;;;;;10.25;9.75;;;;;;;;4939294;28;45541;-70
2023/06/02 13:31:07;;;;;;;;;11.75;11.75;;;;;;;;4937146;28;48066;-70
2023/06/02 13:33:33;;;;;;;;;10.75;9.25;;;;;;;;4939041;28;45401;-71
2023/06/02 13:35:59;;;;;;;;;7.00;6.00;;;;;;;;4939115;28;45397;-70
2023/06/02 13:38:24;;;;;;;;;9.00;7.75;;;;;;;;4949403;28;45351;-71
2023/06/02 13:40:50;;;;;;;;;8.25;8.25;;;;;;;;4958122;28;45586;-70
2023/06/02 13:43:15;;;;;;;;;11.25;9.50;;;;;;;;4958097;28;45666;-71
2023/06/02 13:45:41;;;;;;;;;12.50;11.00;;;;;;;;4958284;28;45952;-70
2023/06/02 13:48:08;;;;;;;;;12.00;9.25;;;;;;;;4958604;28;45483;-69
2023/06/02 13:50:33;;;;;;;;;6.00;6.00;;;;;;;;4957436;28;46185;-71
2023/06/02 13:52:58;;;;;;;;;12.00;9.50;;;;;;;;4958077;28;45385;-69
2023/06/02 13:55:23;;;;;;;;;7.50;7.50;;;;;;;;4958638;28;45469;-72
2023/06/02 13:57:48;;;;;;;;;9.25;8.00;;;;;;;;4958730;28;45436;-71
2023/06/02 14:00:14;;;;;;;;;8.00;8.00;;;;;;;;4957663;28;45431;-72
2023/06/02 14:02:39;;;;;;;;;9.00;9.00;;;;;;;;4957994;28;45434;-71
2023/06/02 14:05:05;;;;;;;;;10.75;8.75;;;;;;;;4958014;28;45431;-72
2023/06/02 14:07:31;;;;;;;;;9.00;6.75;;;;;;;;4956441;28;45374;-71
2023/06/02 14:09:57;;;;;;;;;8.25;8.25;;;;;;;;4956017;28;46388;-70
2023/06/02 14:12:22;;;;;;;;;9.50;8.00;;;;;;;;4958205;28;45242;-71
2023/06/02 14:14:47;;;;;;;;;10.25;8.75;;;;;;;;4957795;28;45433;-69
2023/06/02 14:17:12;;;;;;;;;6.25;6.00;;;;;;;;4957566;28;45496;-71